Terminal Aerodrome Forecast
Issued by NWS

Home | Current Version | Previous Version | Graphics & Text | Print | Product List | Glossary On
Versions: 1 2 3 4 5 6 7 8 9 10 11 12 13 14 15 16 17 18 19 20 21 22 23 24 25 26 27 28 29 30 31
000
FTUS43 KLOT 211700
TAFORD
TAF
KORD 211721Z 2118/2224 24010KT P6SM VCSH BKN080 BKN150
     FM212000 24011G16KT 6SM -SHRA SCT050 BKN080
     FM212200 26011G17KT 5SM SHRA VCTS BKN045CB
      TEMPO 2122/2201 3SM SHRA BKN035
     FM220200 33012G21KT P6SM SCT040
     FM222100 04012G19KT P6SM SKC=

USA.gov is the U.S. government's official web portal to all federal, state and local government web resources and services.